Time;durP1;ratioP1;P1;durP2;ratioP2;P2;SDS_P1;SDS_P2;PMS_P1;PMS_P2;Temp;Humidity;BMP_temperature;BMP_pressure;BME280_temperature;BME280_humidity;BME280_pressure;Samples;Min_cycle;Max_cycle;Signal;HPM_P1;HPM_P2
2023/04/10 00:01:39;;;;;;;4.93;3.28;;;19.30;65.60;;;;;;4992994;28;20046;-69
2023/04/10 00:04:06;;;;;;;4.22;2.80;;;19.30;65.70;;;;;;4993408;28;20145;-69
2023/04/10 00:06:34;;;;;;;5.40;3.20;;;19.30;65.60;;;;;;4993144;28;20060;-68
2023/04/10 00:09:02;;;;;;;4.70;3.05;;;19.30;65.70;;;;;;4993194;28;20054;-68
2023/04/10 00:11:29;;;;;;;4.57;3.28;;;19.30;65.70;;;;;;5007202;28;20053;-68
2023/04/10 00:13:56;;;;;;;5.03;3.15;;;19.30;65.60;;;;;;5012519;28;20420;-68
2023/04/10 00:16:23;;;;;;;4.45;3.03;;;19.30;65.60;;;;;;5011370;28;20057;-69
2023/04/10 00:18:50;;;;;;;5.20;3.00;;;19.30;65.60;;;;;;5012164;28;20053;-68
2023/04/10 00:21:17;;;;;;;4.53;2.72;;;19.30;65.60;;;;;;5012233;28;20057;-68
2023/04/10 00:23:45;;;;;;;5.32;3.13;;;19.30;65.60;;;;;;5010134;28;20061;-69
2023/04/10 00:26:12;;;;;;;4.88;3.30;;;19.30;65.60;;;;;;5012332;28;20076;-68
2023/04/10 00:28:39;;;;;;;4.82;3.22;;;19.20;65.60;;;;;;5011763;28;20419;-68
2023/04/10 00:31:06;;;;;;;4.75;2.83;;;19.20;65.50;;;;;;5011971;28;20052;-68
2023/04/10 00:33:33;;;;;;;4.82;3.35;;;19.20;65.60;;;;;;5011823;28;20042;-69
2023/04/10 00:36:00;;;;;;;4.55;3.20;;;19.20;65.60;;;;;;5010712;28;20064;-68
2023/04/10 00:38:27;;;;;;;5.65;4.57;;;19.20;65.60;;;;;;5010823;28;20062;-68
2023/04/10 00:40:55;;;;;;;5.00;3.35;;;19.20;65.60;;;;;;5010348;28;20066;-68
2023/04/10 00:43:23;;;;;;;4.55;3.05;;;19.20;65.60;;;;;;5010394;28;20050;-68
2023/04/10 00:45:50;;;;;;;4.55;2.85;;;19.20;65.60;;;;;;5022271;28;20108;-68
2023/04/10 00:48:17;;;;;;;5.28;3.92;;;19.10;65.50;;;;;;4992038;28;20054;-68
2023/04/10 00:50:46;;;;;;;4.70;2.85;;;19.10;65.50;;;;;;4992048;28;20066;-69
2023/04/10 00:53:13;;;;;;;4.97;3.30;;;19.10;65.60;;;;;;4992370;28;20058;-68
2023/04/10 00:55:40;;;;;;;4.85;3.33;;;19.10;65.50;;;;;;4991574;28;20076;-69
2023/04/10 00:58:12;;;;;;;4.53;3.22;;;19.10;65.50;;;;;;4992400;28;20058;-69
2023/04/10 01:00:39;;;;;;;4.72;3.30;;;19.10;65.50;;;;;;4991527;28;20136;-68
2023/04/10 01:03:07;;;;;;;6.43;4.72;;;19.10;65.50;;;;;;5011452;28;20057;-69
2023/04/10 01:05:41;;;;;;;5.25;3.17;;;19.10;65.50;;;;;;5011491;28;20053;-68
2023/04/10 01:08:14;;;;;;;5.13;3.45;;;19.10;65.50;;;;;;5011337;28;20049;-69
2023/04/10 01:10:50;;;;;;;5.50;3.25;;;19.10;65.50;;;;;;5010851;28;20056;-68
2023/04/10 01:13:26;;;;;;;5.63;3.63;;;19.10;65.50;;;;;;5010258;28;20492;-69
2023/04/10 01:15:58;;;;;;;6.32;3.05;;;19.10;65.50;;;;;;5011345;28;20076;-69
2023/04/10 01:18:33;;;;;;;5.60;4.68;;;19.10;65.50;;;;;;5011354;28;20050;-68
2023/04/10 01:21:03;;;;;;;6.32;3.90;;;19.00;65.40;;;;;;5011085;28;20050;-69
2023/04/10 01:23:52;;;;;;;4.50;3.15;;;19.10;65.40;;;;;;5010345;28;20104;-69
2023/04/10 01:26:36;;;;;;;5.05;3.13;;;19.00;65.40;;;;;;5009491;28;20053;-68
2023/04/10 01:29:08;;;;;;;5.15;3.58;;;19.00;65.40;;;;;;5011031;28;20061;-68
2023/04/10 01:31:40;;;;;;;6.05;3.90;;;19.00;65.40;;;;;;5011292;28;20056;-69
2023/04/10 01:34:10;;;;;;;4.68;3.30;;;19.00;66.00;;;;;;5010827;28;20424;-69
2023/04/10 01:36:44;;;;;;;4.82;3.40;;;19.00;65.40;;;;;;5010781;28;20417;-69
2023/04/10 01:39:12;;;;;;;5.35;2.97;;;19.00;65.40;;;;;;5010812;28;20514;-69
2023/04/10 01:41:42;;;;;;;5.53;3.28;;;19.00;65.40;;;;;;5010756;28;20489;-69
2023/04/10 01:44:14;;;;;;;5.95;3.88;;;19.00;65.40;;;;;;5007056;28;20058;-69
2023/04/10 01:46:43;;;;;;;5.40;3.40;;;19.00;65.40;;;;;;4990127;28;20062;-69
2023/04/10 01:49:11;;;;;;;5.78;3.55;;;19.00;65.40;;;;;;4990017;28;20489;-68
2023/04/10 01:51:38;;;;;;;5.80;3.78;;;19.00;65.40;;;;;;4991398;28;20065;-69
2023/04/10 01:54:05;;;;;;;5.65;3.33;;;19.00;65.40;;;;;;4989782;28;20501;-69
2023/04/10 01:56:33;;;;;;;5.50;3.80;;;19.00;65.40;;;;;;4990897;28;20058;-69
2023/04/10 01:59:02;;;;;;;5.30;3.47;;;19.00;65.40;;;;;;5004307;28;20041;-69
2023/04/10 02:01:30;;;;;;;5.43;4.10;;;18.90;65.30;;;;;;5008888;28;20149;-69
2023/04/10 02:03:57;;;;;;;5.38;3.70;;;18.90;65.30;;;;;;5010513;28;20065;-68
2023/04/10 02:06:33;;;;;;;4.60;3.13;;;18.90;65.30;;;;;;5010617;28;20388;-69
2023/04/10 02:09:10;;;;;;;5.55;3.67;;;18.90;65.30;;;;;;5010355;28;20053;-69
2023/04/10 02:11:43;;;;;;;5.63;4.95;;;18.90;65.30;;;;;;5008800;28;20053;-69
2023/04/10 02:14:12;;;;;;;5.85;4.20;;;18.90;65.30;;;;;;5010317;28;20125;-69
2023/04/10 02:16:41;;;;;;;5.65;4.78;;;18.90;65.30;;;;;;5010224;28;20053;-68
2023/04/10 02:19:11;;;;;;;5.63;3.70;;;18.90;65.30;;;;;;5010204;28;20073;-69
2023/04/10 02:21:38;;;;;;;6.05;4.82;;;18.90;65.30;;;;;;5009510;28;20053;-69
2023/04/10 02:24:06;;;;;;;5.72;4.50;;;18.90;65.30;;;;;;5009862;28;20759;-69
2023/04/10 02:26:44;;;;;;;5.18;3.78;;;18.90;65.30;;;;;;5009742;28;20049;-68
2023/04/10 02:29:12;;;;;;;5.18;3.65;;;18.90;65.20;;;;;;5008524;28;20397;-69
2023/04/10 02:31:40;;;;;;;5.65;4.78;;;18.90;65.20;;;;;;5008987;28;20045;-69
2023/04/10 02:34:07;;;;;;;5.57;3.22;;;18.90;65.20;;;;;;5008998;28;20189;-69
2023/04/10 02:36:35;;;;;;;6.53;4.97;;;18.90;65.20;;;;;;5010026;28;20056;-69
2023/04/10 02:39:02;;;;;;;5.80;3.88;;;18.90;65.20;;;;;;5010094;28;20123;-69
2023/04/10 02:41:29;;;;;;;5.53;3.70;;;18.80;65.20;;;;;;5009636;28;20057;-69
2023/04/10 02:43:56;;;;;;;5.30;3.58;;;18.90;65.20;;;;;;5008109;28;20068;-68
2023/04/10 02:46:23;;;;;;;6.72;3.75;;;18.80;65.20;;;;;;5009850;28;20424;-68
2023/04/10 02:48:53;;;;;;;5.03;4.05;;;18.80;65.10;;;;;;5008829;28;20058;-69
2023/04/10 02:51:20;;;;;;;6.32;4.00;;;18.80;65.20;;;;;;5009928;28;20050;-69
2023/04/10 02:53:48;;;;;;;6.30;4.00;;;18.80;65.20;;;;;;5009540;28;20058;-69
2023/04/10 02:56:15;;;;;;;5.63;3.80;;;18.80;65.20;;;;;;5009752;28;20069;-69
2023/04/10 02:58:44;;;;;;;7.40;5.00;;;18.80;65.10;;;;;;5008339;28;20500;-69
2023/04/10 03:01:12;;;;;;;5.80;3.50;;;18.80;65.40;;;;;;5005869;28;20471;-69
2023/04/10 03:03:39;;;;;;;5.30;3.67;;;18.80;65.10;;;;;;5009641;28;20046;-70
2023/04/10 03:06:08;;;;;;;6.22;5.05;;;18.80;65.10;;;;;;5009725;28;20086;-69
2023/04/10 03:08:35;;;;;;;;;;;18.70;65.10;;;;;;5010533;28;20058;-69
2023/04/10 03:11:02;;;;;;;5.47;3.67;;;18.70;65.00;;;;;;5006981;28;19948;-69
2023/04/10 03:13:29;;;;;;;5.15;3.33;;;18.70;65.00;;;;;;5000790;28;20054;-69
2023/04/10 03:15:56;;;;;;;5.57;4.95;;;18.70;65.10;;;;;;4989828;28;20149;-69
2023/04/10 03:18:23;;;;;;;5.47;3.75;;;18.70;65.10;;;;;;5004625;28;20046;-69
2023/04/10 03:20:50;;;;;;;5.43;4.30;;;18.70;65.00;;;;;;5009812;28;20056;-69
2023/04/10 03:23:18;;;;;;;6.63;5.25;;;18.70;65.00;;;;;;5009272;28;20121;-69
2023/04/10 03:25:49;;;;;;;5.05;4.47;;;18.70;65.00;;;;;;5009105;28;20583;-69
2023/04/10 03:28:17;;;;;;;6.47;4.97;;;18.70;65.00;;;;;;5009138;28;20054;-68
2023/04/10 03:30:44;;;;;;;5.28;3.63;;;18.70;65.00;;;;;;5009448;28;20061;-69
2023/04/10 03:33:11;;;;;;;5.53;3.50;;;18.70;64.90;;;;;;5011768;28;20057;-69
2023/04/10 03:35:38;;;;;;;5.60;3.75;;;18.80;65.00;;;;;;5013289;28;20050;-69
2023/04/10 03:38:05;;;;;;;5.95;4.13;;;18.80;64.90;;;;;;5013003;28;20057;-68
2023/04/10 03:40:34;;;;;;;5.22;3.30;;;18.80;64.80;;;;;;5012804;28;20053;-69
2023/04/10 03:43:01;;;;;;;5.93;3.60;;;18.90;64.80;;;;;;4996950;28;20059;-68
2023/04/10 03:45:28;;;;;;;6.32;4.57;;;18.90;64.70;;;;;;4993282;28;20054;-69
2023/04/10 03:47:55;;;;;;;6.00;5.05;;;19.00;64.70;;;;;;4993389;28;20490;-69
2023/04/10 03:50:22;;;;;;;6.00;3.58;;;19.00;64.60;;;;;;4993394;28;20058;-69
2023/04/10 03:52:51;;;;;;;5.78;3.80;;;19.10;64.50;;;;;;5011584;28;20563;-69
2023/04/10 03:55:18;;;;;;;5.22;3.55;;;19.10;64.40;;;;;;5012296;28;20527;-69
2023/04/10 03:57:47;;;;;;;5.07;3.45;;;19.20;64.30;;;;;;5012863;28;20058;-68
2023/04/10 04:00:15;;;;;;;4.80;3.40;;;19.20;64.10;;;;;;5011255;28;20054;-69
2023/04/10 04:02:42;;;;;;;5.60;4.57;;;19.30;64.10;;;;;;5011154;28;20053;-68
2023/04/10 04:05:10;;;;;;;5.45;3.10;;;19.40;63.90;;;;;;5012777;28;20058;-69
2023/04/10 04:07:37;;;;;;;6.07;5.03;;;19.50;63.90;;;;;;5011195;28;20054;-68
2023/04/10 04:10:04;;;;;;;5.78;3.33;;;19.50;63.80;;;;;;5011093;28;20133;-69
2023/04/10 04:12:31;;;;;;;4.97;3.42;;;19.60;63.70;;;;;;5011577;28;20424;-69
2023/04/10 04:14:59;;;;;;;4.95;3.50;;;19.70;63.70;;;;;;5011352;28;20062;-69
2023/04/10 04:17:26;;;;;;;5.32;3.35;;;19.70;63.60;;;;;;5012236;28;20516;-69
2023/04/10 04:19:53;;;;;;;4.80;4.25;;;19.70;63.50;;;;;;5012070;28;20507;-69
2023/04/10 04:22:20;;;;;;;4.75;3.28;;;19.70;63.50;;;;;;5011109;28;20053;-69
2023/04/10 04:24:47;;;;;;;5.50;3.75;;;19.70;63.40;;;;;;5012083;28;20061;-68
2023/04/10 04:27:14;;;;;;;4.38;3.03;;;19.70;63.40;;;;;;5011178;28;20451;-68
2023/04/10 04:29:41;;;;;;;4.53;3.28;;;19.70;63.50;;;;;;5012387;28;20141;-69
2023/04/10 04:32:10;;;;;;;4.82;3.25;;;19.70;63.50;;;;;;5010919;28;20053;-69
2023/04/10 04:34:37;;;;;;;5.63;3.63;;;19.70;63.40;;;;;;5012065;28;20060;-69
2023/04/10 04:37:04;;;;;;;5.93;3.53;;;19.70;63.50;;;;;;5012052;28;20069;-69
2023/04/10 04:39:31;;;;;;;6.05;3.65;;;19.60;64.10;;;;;;5010327;28;20108;-69
2023/04/10 04:41:58;;;;;;;4.97;3.03;;;19.70;63.60;;;;;;4996026;28;20057;-69
2023/04/10 04:44:25;;;;;;;5.47;3.45;;;19.60;63.50;;;;;;5011139;28;20125;-69
2023/04/10 04:46:52;;;;;;;6.03;3.88;;;19.60;63.50;;;;;;5011749;28;20045;-69
2023/04/10 04:49:21;;;;;;;5.60;3.50;;;19.60;63.60;;;;;;5010918;28;20078;-69
2023/04/10 04:51:47;;;;;;;4.65;3.45;;;19.50;63.60;;;;;;5010590;28;20054;-69
2023/04/10 04:54:14;;;;;;;5.43;3.33;;;19.60;63.60;;;;;;5011502;28;20097;-69
2023/04/10 04:56:41;;;;;;;6.03;3.90;;;19.50;63.60;;;;;;5011625;28;20053;-69
2023/04/10 04:59:08;;;;;;;6.15;3.60;;;19.50;64.20;;;;;;5010318;28;20066;-69
2023/04/10 05:01:35;;;;;;;5.43;3.92;;;19.50;64.20;;;;;;5011435;28;20058;-69
2023/04/10 05:04:02;;;;;;;5.60;4.47;;;19.50;63.60;;;;;;5009956;28;20054;-69
2023/04/10 05:06:31;;;;;;;5.55;3.90;;;19.40;63.70;;;;;;5010586;28;20400;-69
2023/04/10 05:08:58;;;;;;;6.10;3.75;;;19.40;63.70;;;;;;5010438;28;20064;-69
2023/04/10 05:11:25;;;;;;;4.22;2.85;;;19.40;63.80;;;;;;5010115;28;20053;-69
2023/04/10 05:13:52;;;;;;;4.80;3.42;;;19.30;63.80;;;;;;5011210;28;20061;-69
2023/04/10 05:16:19;;;;;;;5.05;3.50;;;19.30;63.90;;;;;;5011240;28;20049;-69
2023/04/10 05:18:46;;;;;;;5.80;3.40;;;19.30;63.90;;;;;;5011043;28;20097;-69
2023/04/10 05:21:13;;;;;;;5.55;3.78;;;19.20;63.90;;;;;;5010942;28;20057;-69
2023/04/10 05:23:41;;;;;;;5.45;3.40;;;19.20;63.90;;;;;;5009598;28;20221;-68
2023/04/10 05:26:08;;;;;;;6.53;4.22;;;19.20;64.00;;;;;;5011006;28;20058;-69
2023/04/10 05:28:35;;;;;;;5.15;3.13;;;19.20;64.00;;;;;;5010916;28;20050;-69
2023/04/10 05:31:02;;;;;;;5.43;3.38;;;19.10;64.00;;;;;;5010866;28;20061;-69
2023/04/10 05:33:29;;;;;;;5.75;4.40;;;19.10;64.00;;;;;;5010719;28;20057;-69
2023/04/10 05:35:56;;;;;;;5.72;3.55;;;19.10;64.00;;;;;;5010943;28;20128;-69
2023/04/10 05:38:23;;;;;;;4.88;3.42;;;19.10;64.10;;;;;;5009332;28;20530;-69
2023/04/10 05:40:52;;;;;;;4.90;3.22;;;19.00;64.00;;;;;;4990819;28;20062;-69
2023/04/10 05:43:20;;;;;;;6.22;3.47;;;19.10;64.10;;;;;;4990912;28;20046;-69
2023/04/10 05:45:47;;;;;;;6.65;4.88;;;19.10;64.10;;;;;;4991113;28;20328;-69
2023/04/10 05:48:14;;;;;;;5.28;4.05;;;19.00;64.10;;;;;;4990964;28;20046;-69
2023/04/10 05:50:41;;;;;;;5.63;3.50;;;19.00;64.10;;;;;;5000517;28;20064;-68
2023/04/10 05:53:12;;;;;;;5.45;3.55;;;19.00;64.00;;;;;;5010688;28;20057;-69
2023/04/10 05:55:39;;;;;;;5.15;3.50;;;19.00;64.10;;;;;;5010078;28;20416;-69
2023/04/10 05:58:08;;;;;;;5.57;3.58;;;19.00;64.10;;;;;;5010673;28;20058;-69
2023/04/10 06:00:35;;;;;;;4.97;3.10;;;18.90;64.10;;;;;;5010698;28;20056;-69
2023/04/10 06:03:02;;;;;;;5.88;3.63;;;19.00;64.10;;;;;;5004624;28;20385;-69
2023/04/10 06:05:29;;;;;;;5.90;4.35;;;19.00;64.10;;;;;;5009237;28;20510;-69
2023/04/10 06:07:56;;;;;;;6.53;5.03;;;19.00;64.10;;;;;;5010454;28;20060;-69
2023/04/10 06:10:23;;;;;;;5.93;4.03;;;19.00;64.10;;;;;;5010283;28;20064;-69
2023/04/10 06:12:50;;;;;;;6.45;4.05;;;18.90;64.10;;;;;;5009253;28;20050;-69
2023/04/10 06:15:19;;;;;;;5.85;3.97;;;18.90;64.10;;;;;;5010179;28;20061;-69
2023/04/10 06:17:46;;;;;;;5.40;3.65;;;18.90;64.00;;;;;;5009402;28;20413;-69
2023/04/10 06:20:13;;;;;;;7.35;5.22;;;19.00;64.10;;;;;;5008959;28;20519;-69
2023/04/10 06:22:40;;;;;;;5.45;3.58;;;18.90;64.10;;;;;;5009893;28;20824;-69
2023/04/10 06:25:08;;;;;;;6.05;3.85;;;18.90;64.10;;;;;;5009948;28;20398;-69
2023/04/10 06:27:35;;;;;;;5.93;3.65;;;19.00;64.20;;;;;;5009680;28;20064;-68
2023/04/10 06:30:02;;;;;;;5.82;3.60;;;19.00;64.10;;;;;;5010545;28;20058;-69
2023/04/10 06:32:30;;;;;;;5.65;3.72;;;19.00;64.10;;;;;;5008735;28;20112;-68
2023/04/10 06:34:57;;;;;;;5.38;3.72;;;19.00;64.10;;;;;;5010015;28;20054;-69
2023/04/10 06:37:30;;;;;;;5.65;3.25;;;19.10;64.10;;;;;;5008622;28;20071;-69
2023/04/10 06:40:04;;;;;;;6.07;5.05;;;19.10;64.60;;;;;;5009667;28;20050;-69
2023/04/10 06:42:31;;;;;;;4.88;3.33;;;19.10;64.00;;;;;;5009842;28;20450;-69
2023/04/10 06:44:58;;;;;;;6.57;3.80;;;19.10;64.00;;;;;;5010023;28;20242;-68
2023/04/10 06:47:25;;;;;;;5.50;3.63;;;19.10;63.90;;;;;;5009937;28;20054;-69
2023/04/10 06:49:54;;;;;;;5.50;4.00;;;19.10;63.90;;;;;;5009668;28;20056;-68
2023/04/10 06:52:21;;;;;;;6.50;4.25;;;19.10;63.80;;;;;;5008521;28;20057;-69
2023/04/10 06:54:48;;;;;;;6.22;3.88;;;19.20;63.80;;;;;;5009687;28;20049;-69
2023/04/10 06:57:15;;;;;;;6.03;3.38;;;19.20;63.80;;;;;;5009553;28;20405;-68
2023/04/10 06:59:42;;;;;;;6.28;3.85;;;19.20;63.80;;;;;;5009768;28;20060;-68
2023/04/10 07:02:10;;;;;;;6.32;4.10;;;19.20;63.70;;;;;;5009412;28;20493;-69
2023/04/10 07:04:37;;;;;;;6.35;3.97;;;19.20;63.70;;;;;;5009480;28;20050;-68
2023/04/10 07:07:08;;;;;;;5.53;4.32;;;19.20;63.70;;;;;;5010592;28;20053;-69
2023/04/10 07:09:35;;;;;;;4.90;3.45;;;19.10;63.70;;;;;;5013574;28;20385;-69
2023/04/10 07:12:02;;;;;;;7.68;5.80;;;19.20;63.70;;;;;;5013438;28;20467;-69
2023/04/10 07:14:29;;;;;;;6.05;3.97;;;19.20;63.70;;;;;;5013846;28;20054;-69
2023/04/10 07:16:56;;;;;;;6.28;5.22;;;19.10;63.60;;;;;;5013477;28;20117;-69
2023/04/10 07:19:23;;;;;;;6.28;5.25;;;19.20;63.70;;;;;;5013487;28;20046;-69
2023/04/10 07:21:50;;;;;;;5.50;3.83;;;19.20;63.70;;;;;;5012281;28;20463;-69
2023/04/10 07:24:18;;;;;;;5.38;4.22;;;19.20;63.60;;;;;;5013159;28;20052;-69
2023/04/10 07:26:46;;;;;;;5.22;3.88;;;19.20;63.70;;;;;;5013793;28;20050;-69
2023/04/10 07:29:14;;;;;;;6.25;4.30;;;19.20;63.70;;;;;;5011838;28;20068;-69
2023/04/10 07:31:41;;;;;;;6.40;5.30;;;19.20;63.70;;;;;;5013057;28;20564;-69
2023/04/10 07:34:08;;;;;;;6.53;5.13;;;19.20;63.70;;;;;;5013197;28;20558;-68
2023/04/10 07:36:35;;;;;;;6.80;6.10;;;19.30;63.60;;;;;;5003764;28;20483;-69
2023/04/10 07:39:02;;;;;;;6.70;5.13;;;19.30;63.60;;;;;;5010822;28;20056;-68
2023/04/10 07:41:30;;;;;;;5.97;4.13;;;19.20;63.60;;;;;;5012938;28;20066;-69
2023/04/10 07:43:57;;;;;;;5.95;3.47;;;19.20;63.50;;;;;;5011648;28;20050;-68
2023/04/10 07:46:25;;;;;;;6.47;4.90;;;19.20;63.60;;;;;;5012948;28;20052;-69
2023/04/10 07:48:53;;;;;;;6.18;3.67;;;19.20;63.60;;;;;;5013099;28;20054;-69
2023/04/10 07:51:21;;;;;;;5.25;3.70;;;19.30;63.60;;;;;;5013091;28;20092;-69
2023/04/10 07:53:48;;;;;;;5.03;3.50;;;19.20;63.60;;;;;;5013228;28;20068;-68
2023/04/10 07:56:16;;;;;;;6.57;4.07;;;19.30;63.60;;;;;;5012854;28;20141;-68
2023/04/10 07:58:45;;;;;;;5.60;4.97;;;19.30;63.60;;;;;;5012973;28;20108;-69
2023/04/10 08:01:12;;;;;;;5.72;4.75;;;19.30;63.60;;;;;;5013220;28;20064;-69
2023/04/10 08:03:40;;;;;;;5.55;3.20;;;19.30;63.50;;;;;;5011309;28;20061;-69
2023/04/10 08:06:09;;;;;;;5.60;3.75;;;19.30;63.50;;;;;;5012328;28;20570;-69
2023/04/10 08:08:37;;;;;;;5.97;4.82;;;19.30;63.50;;;;;;5011642;28;20049;-69
2023/04/10 08:11:07;;;;;;;6.32;4.45;;;19.30;63.50;;;;;;5011715;28;20692;-68
2023/04/10 08:13:34;;;;;;;5.57;3.63;;;19.40;63.50;;;;;;5012531;28;20503;-68
2023/04/10 08:16:02;;;;;;;6.45;5.22;;;19.40;63.50;;;;;;5012793;28;20060;-68
2023/04/10 08:18:29;;;;;;;6.38;5.60;;;19.40;63.50;;;;;;5011382;28;20061;-69
2023/04/10 08:20:56;;;;;;;5.15;3.25;;;19.40;63.50;;;;;;5011860;28;20133;-68
2023/04/10 08:23:23;;;;;;;5.60;3.50;;;19.40;63.50;;;;;;5013101;28;20050;-69
2023/04/10 08:25:50;;;;;;;5.40;3.58;;;19.40;63.40;;;;;;5010964;28;20140;-69
2023/04/10 08:28:18;;;;;;;5.22;3.50;;;19.40;63.40;;;;;;5012473;28;20046;-68
2023/04/10 08:30:45;;;;;;;5.80;3.85;;;19.50;63.40;;;;;;5012335;28;20412;-68
2023/04/10 08:33:13;;;;;;;5.65;3.85;;;19.50;63.30;;;;;;5012805;28;20060;-69
2023/04/10 08:35:40;;;;;;;6.05;4.20;;;19.50;63.30;;;;;;5008744;28;20049;-69
2023/04/10 08:38:07;;;;;;;6.38;4.03;;;19.50;63.30;;;;;;5012227;28;20411;-68
2023/04/10 08:40:37;;;;;;;6.43;4.93;;;19.50;63.30;;;;;;5010873;28;20512;-69
2023/04/10 08:43:05;;;;;;;5.90;3.85;;;19.50;63.20;;;;;;5011389;28;20049;-69
2023/04/10 08:45:32;;;;;;;6.05;4.05;;;19.50;63.70;;;;;;5012474;28;20054;-69
2023/04/10 08:48:02;;;;;;;6.20;4.97;;;19.60;63.10;;;;;;5012254;28;20073;-69
2023/04/10 08:50:34;;;;;;;5.70;4.90;;;19.60;63.30;;;;;;5012547;28;20072;-69
2023/04/10 08:53:08;;;;;;;5.78;3.80;;;19.60;63.10;;;;;;5010529;28;20104;-69
2023/04/10 08:55:36;;;;;;;5.15;3.90;;;19.50;63.00;;;;;;5010289;28;20054;-69
2023/04/10 08:58:03;;;;;;;6.38;4.22;;;19.50;63.10;;;;;;5010601;28;20053;-69
2023/04/10 09:00:34;;;;;;;5.32;3.90;;;19.50;63.10;;;;;;5012436;28;20050;-69
2023/04/10 09:03:03;;;;;;;5.82;3.85;;;19.50;63.00;;;;;;5011865;28;20089;-69
2023/04/10 09:05:32;;;;;;;5.68;4.00;;;19.50;63.10;;;;;;4997068;28;20089;-69
2023/04/10 09:07:59;;;;;;;5.63;3.67;;;19.50;63.10;;;;;;4992249;28;20185;-69
2023/04/10 09:10:26;;;;;;;6.68;3.85;;;19.50;63.70;;;;;;4991690;28;20065;-69
2023/04/10 09:12:53;;;;;;;5.63;3.80;;;19.60;63.10;;;;;;4991735;28;20523;-69
2023/04/10 09:15:20;;;;;;;5.68;3.92;;;19.60;63.10;;;;;;5005177;28;20416;-69
2023/04/10 09:17:58;;;;;;;6.50;4.70;;;19.60;63.10;;;;;;5011000;28;20496;-69
2023/04/10 09:20:27;;;;;;;6.28;5.38;;;19.60;63.00;;;;;;5011571;28;20057;-69
2023/04/10 09:22:55;;;;;;;5.53;3.88;;;19.60;63.00;;;;;;5011093;28;20054;-69
2023/04/10 09:25:31;;;;;;;7.57;5.25;;;19.60;63.00;;;;;;5009941;28;20511;-69
2023/04/10 09:28:03;;;;;;;5.38;3.42;;;19.60;63.00;;;;;;5011226;28;20056;-69
2023/04/10 09:30:35;;;;;;;5.13;3.35;;;19.60;63.00;;;;;;5009633;28;20054;-69
2023/04/10 09:33:02;;;;;;;6.18;4.18;;;19.60;63.00;;;;;;5009138;28;20480;-69
2023/04/10 09:35:37;;;;;;;5.57;4.00;;;19.70;63.00;;;;;;5009441;28;20053;-69
2023/04/10 09:38:16;;;;;;;5.78;3.72;;;19.60;63.00;;;;;;5011183;28;20069;-69
2023/04/10 09:40:44;;;;;;;5.75;3.67;;;19.70;63.00;;;;;;5010769;28;20061;-69
2023/04/10 09:43:18;;;;;;;5.88;3.83;;;19.60;62.90;;;;;;5010931;28;20512;-69
2023/04/10 09:45:55;;;;;;;5.63;4.80;;;19.60;63.00;;;;;;5010684;28;20140;-69
2023/04/10 09:48:22;;;;;;;5.78;5.13;;;19.70;63.00;;;;;;5010613;28;20103;-69
2023/04/10 09:50:50;;;;;;;5.65;3.53;;;19.70;63.00;;;;;;5010795;28;20057;-69
2023/04/10 09:53:20;;;;;;;5.97;4.95;;;19.70;62.90;;;;;;5010529;28;20119;-69
2023/04/10 09:55:48;;;;;;;6.00;4.03;;;19.70;63.00;;;;;;5009130;28;20413;-69
2023/04/10 09:58:17;;;;;;;6.05;4.85;;;19.70;62.90;;;;;;5010786;28;20069;-68
2023/04/10 10:00:46;;;;;;;5.88;4.82;;;19.70;62.90;;;;;;5010697;28;20049;-68
2023/04/10 10:03:15;;;;;;;5.63;3.58;;;19.70;62.90;;;;;;5009780;28;20133;-68
2023/04/10 10:05:44;;;;;;;5.30;3.55;;;19.70;62.90;;;;;;5001937;28;20057;-69
2023/04/10 10:08:12;;;;;;;5.60;3.50;;;19.70;62.90;;;;;;4990606;28;20062;-69
2023/04/10 10:10:45;;;;;;;5.70;4.55;;;19.80;62.90;;;;;;4990959;28;20082;-69
2023/04/10 10:13:17;;;;;;;5.55;4.60;;;19.80;62.90;;;;;;4990997;28;20053;-69
2023/04/10 10:15:49;;;;;;;5.97;3.67;;;19.80;62.90;;;;;;4990620;28;20054;-69
2023/04/10 10:18:25;;;;;;;4.85;3.40;;;19.80;63.50;;;;;;4990670;28;20085;-69
2023/04/10 10:20:53;;;;;;;5.20;3.30;;;19.80;62.90;;;;;;4989432;28;20062;-69
2023/04/10 10:23:22;;;;;;;5.20;4.57;;;19.80;62.90;;;;;;5005327;28;20080;-69
2023/04/10 10:25:52;;;;;;;5.80;4.10;;;19.80;62.90;;;;;;5008789;28;20169;-69
2023/04/10 10:28:21;;;;;;;5.18;3.58;;;19.80;62.90;;;;;;5010259;28;20054;-69
2023/04/10 10:30:48;;;;;;;5.63;3.85;;;19.80;62.80;;;;;;5009148;28;20054;-69
2023/04/10 10:33:15;;;;;;;6.20;4.00;;;19.80;62.80;;;;;;4993389;28;20057;-69
2023/04/10 10:35:43;;;;;;;5.20;3.72;;;19.80;62.90;;;;;;4991235;28;20397;-69
2023/04/10 10:38:11;;;;;;;5.60;3.72;;;19.90;62.90;;;;;;5009942;28;20136;-69
2023/04/10 10:40:46;;;;;;;5.30;3.83;;;19.90;63.50;;;;;;5009593;28;20057;-68
2023/04/10 10:43:21;;;;;;;5.05;4.22;;;19.90;62.90;;;;;;5009156;28;20058;-68
2023/04/10 10:45:54;;;;;;;5.65;4.45;;;19.90;62.90;;;;;;5009717;28;20065;-68
2023/04/10 10:48:21;;;;;;;5.03;3.22;;;19.90;62.90;;;;;;5010118;28;20050;-67
2023/04/10 10:50:53;;;;;;;5.95;4.80;;;19.90;62.80;;;;;;5009745;28;20049;-68
2023/04/10 10:53:42;;;;;;;5.32;4.53;;;19.90;62.80;;;;;;5009649;28;20050;-68
2023/04/10 10:56:35;;;;;;;5.25;3.50;;;19.90;62.80;;;;;;5005273;28;20054;-68
2023/04/10 10:59:04;;;;;;;5.93;3.70;;;19.90;62.80;;;;;;5008372;28;20061;-68
2023/04/10 11:01:31;;;;;;;5.07;3.28;;;19.90;62.80;;;;;;5009620;28;20137;-68
2023/04/10 11:03:58;;;;;;;5.50;3.55;;;20.00;62.80;;;;;;5008826;28;20057;-68
2023/04/10 11:06:51;;;;;;;5.15;3.28;;;20.00;62.80;;;;;;5008374;28;20093;-68
2023/04/10 11:09:47;;;;;;;5.70;3.50;;;20.00;62.80;;;;;;5009280;28;20093;-68
2023/04/10 11:12:15;;;;;;;6.03;4.70;;;20.00;62.80;;;;;;5009631;28;20054;-68
2023/04/10 11:14:45;;;;;;;5.35;3.35;;;20.00;62.70;;;;;;5009471;28;20050;-68
2023/04/10 11:17:12;;;;;;;5.35;3.88;;;20.00;62.70;;;;;;5009382;28;20057;-68
2023/04/10 11:19:59;;;;;;;5.13;3.28;;;20.00;62.70;;;;;;5009272;28;20453;-68
2023/04/10 11:22:27;;;;;;;5.20;3.08;;;20.00;62.60;;;;;;5009031;28;20129;-68
2023/04/10 11:25:00;;;;;;;5.00;3.25;;;20.10;62.70;;;;;;5007387;28;20058;-68
2023/04/10 11:27:45;;;;;;;5.32;3.38;;;20.00;62.60;;;;;;5009176;28;20423;-68
2023/04/10 11:30:33;;;;;;;4.70;3.13;;;20.10;62.60;;;;;;5005798;28;20105;-68
2023/04/10 11:33:01;;;;;;;;;;;20.00;62.50;;;;;;4990693;28;20050;-68
2023/04/10 11:35:30;;;;;;;4.50;3.00;;;20.00;62.40;;;;;;4989518;28;20379;-68
2023/04/10 11:38:15;;;;;;;5.05;3.88;;;20.00;62.50;;;;;;4988390;28;20145;-68
2023/04/10 11:40:55;;;;;;;5.30;3.88;;;20.00;62.50;;;;;;4989624;28;20051;-68
2023/04/10 11:43:22;;;;;;;5.25;3.47;;;20.00;62.40;;;;;;4989866;28;20058;-68
2023/04/10 11:45:50;;;;;;;4.75;3.05;;;20.00;62.50;;;;;;4990008;28;20057;-67
2023/04/10 11:48:17;;;;;;;5.20;3.35;;;20.00;62.40;;;;;;5002847;28;20058;-68
2023/04/10 11:50:44;;;;;;;5.30;3.90;;;20.00;62.40;;;;;;5008113;28;20133;-68
2023/04/10 11:53:20;;;;;;;4.38;3.03;;;20.00;62.30;;;;;;5010383;28;20081;-68
2023/04/10 11:55:47;;;;;;;5.35;3.20;;;20.00;62.30;;;;;;5012711;28;20050;-68
2023/04/10 11:58:25;;;;;;;5.45;3.38;;;20.00;62.30;;;;;;5012680;28;20137;-68
2023/04/10 12:01:03;;;;;;;5.25;3.20;;;20.00;62.30;;;;;;5011315;28;20049;-68
2023/04/10 12:03:38;;;;;;;5.70;4.32;;;20.00;62.20;;;;;;5012618;28;20046;-68
2023/04/10 12:06:08;;;;;;;5.90;3.45;;;20.00;62.20;;;;;;4994681;28;20100;-68
2023/04/10 12:08:36;;;;;;;5.70;4.10;;;20.00;62.20;;;;;;4991559;28;20093;-68
2023/04/10 12:11:03;;;;;;;4.40;3.10;;;20.00;62.20;;;;;;4992770;28;20057;-68
2023/04/10 12:13:31;;;;;;;5.20;4.18;;;20.00;62.20;;;;;;4992925;28;20058;-68
2023/04/10 12:16:02;;;;;;;5.00;3.20;;;20.00;62.10;;;;;;4991758;28;20540;-68
2023/04/10 12:18:30;;;;;;;4.25;2.85;;;20.00;62.10;;;;;;4991499;28;20061;-68
2023/04/10 12:20:58;;;;;;;4.40;2.92;;;20.00;62.10;;;;;;4996055;28;20053;-68
2023/04/10 12:23:27;;;;;;;4.82;2.90;;;20.00;62.10;;;;;;5012334;28;20050;-68
2023/04/10 12:26:08;;;;;;;4.60;2.97;;;20.00;62.00;;;;;;5010852;28;20069;-68
2023/04/10 12:28:36;;;;;;;5.03;3.20;;;20.00;62.00;;;;;;5009462;28;20054;-68
2023/04/10 12:31:03;;;;;;;4.93;3.05;;;20.00;62.00;;;;;;4991329;28;20058;-68
2023/04/10 12:33:32;;;;;;;4.70;3.63;;;20.00;62.00;;;;;;4991518;28;20066;-68
2023/04/10 12:35:59;;;;;;;5.00;3.95;;;20.00;61.90;;;;;;4990921;28;20065;-68
2023/04/10 12:38:36;;;;;;;4.05;2.63;;;20.00;62.00;;;;;;5000721;28;20065;-68
2023/04/10 12:41:03;;;;;;;5.10;2.95;;;20.00;61.90;;;;;;5011074;28;20050;-68
2023/04/10 12:43:32;;;;;;;5.32;3.33;;;20.00;61.90;;;;;;5011766;28;20394;-68
2023/04/10 12:45:59;;;;;;;7.72;3.22;;;20.00;61.90;;;;;;4992111;28;20132;-68
2023/04/10 12:48:26;;;;;;;4.65;2.95;;;20.00;61.90;;;;;;4992479;28;20061;-68
2023/04/10 12:50:55;;;;;;;5.07;3.88;;;20.00;61.80;;;;;;4991101;28;20064;-68
2023/04/10 12:53:22;;;;;;;5.00;3.72;;;20.00;61.80;;;;;;4990889;28;20438;-68
2023/04/10 12:56:00;;;;;;;6.15;2.90;;;20.00;61.80;;;;;;5002760;28;20057;-68
2023/04/10 12:58:29;;;;;;;4.55;3.75;;;20.00;61.70;;;;;;5011568;28;20056;-68